createdAt,value
2022-12-22T00:02:37.291Z,21.20
2022-12-22T00:06:59.386Z,18.17
2022-12-22T00:11:20.135Z,20.17
2022-12-22T00:15:41.209Z,18.03
2022-12-22T00:20:01.678Z,14.97
2022-12-22T00:24:24.249Z,17.93
2022-12-22T00:28:45.241Z,16.93
2022-12-22T00:33:06.535Z,16.80
2022-12-22T00:37:30.486Z,16.83
2022-12-22T00:41:51.945Z,21.77
2022-12-22T00:46:12.702Z,17.37
2022-12-22T00:50:34.554Z,18.17
2022-12-22T00:54:54.960Z,17.50
2022-12-22T00:59:18.489Z,14.73
2022-12-22T01:03:39.053Z,18.23
2022-12-22T01:08:00.109Z,17.20
2022-12-22T01:12:22.548Z,18.70
2022-12-22T01:16:44.168Z,14.80
2022-12-22T01:21:05.048Z,18.93
2022-12-22T01:25:31.651Z,18.20
2022-12-22T01:29:51.980Z,17.00
2022-12-22T01:34:13.551Z,17.63
2022-12-22T01:38:34.374Z,19.67
2022-12-22T01:42:55.163Z,20.63
2022-12-22T01:48:01.993Z,17.10
2022-12-22T01:52:26.193Z,14.87
2022-12-22T01:56:47.001Z,16.17
2022-12-22T02:01:07.350Z,19.30
2022-12-22T02:05:29.592Z,18.00
2022-12-22T02:10:02.770Z,19.07
2022-12-22T02:14:35.322Z,15.40
2022-12-22T02:19:01.062Z,19.20
2022-12-22T02:23:32.297Z,20.10
2022-12-22T02:27:57.597Z,18.43
2022-12-22T02:32:18.237Z,17.40
2022-12-22T02:36:50.511Z,15.90
2022-12-22T02:41:23.692Z,23.73
2022-12-22T02:45:51.232Z,19.93
2022-12-22T02:50:14.954Z,20.03
2022-12-22T02:54:36.776Z,18.53
2022-12-22T02:58:57.282Z,20.47
2022-12-22T03:03:19.050Z,18.80
2022-12-22T03:07:39.392Z,19.03
2022-12-22T03:11:59.902Z,16.30
2022-12-22T03:16:20.388Z,17.90
2022-12-22T03:20:41.981Z,23.63
2022-12-22T03:25:02.211Z,21.37
2022-12-22T03:29:05.493Z,22.30
2022-12-22T03:33:08.697Z,25.97
2022-12-22T03:37:12.976Z,19.70
2022-12-22T03:41:29.859Z,24.53
2022-12-22T03:45:50.080Z,25.33
2022-12-22T03:49:53.043Z,24.43
2022-12-22T03:53:57.415Z,23.50
2022-12-22T03:58:01.020Z,21.60
2022-12-22T04:02:04.144Z,25.37
2022-12-22T04:06:07.898Z,28.23
2022-12-22T04:10:30.448Z,23.83
2022-12-22T04:14:34.711Z,26.63
2022-12-22T04:18:37.955Z,21.67
2022-12-22T04:22:40.899Z,23.97
2022-12-22T04:26:45.436Z,22.23
2022-12-22T04:30:51.099Z,25.40
2022-12-22T04:34:54.106Z,27.47
2022-12-22T04:38:57.116Z,23.87
2022-12-22T04:43:01.489Z,21.77
2022-12-22T04:47:04.712Z,24.30
2022-12-22T04:51:07.967Z,27.87
2022-12-22T04:55:11.154Z,21.47
2022-12-22T04:59:15.485Z,22.23
2022-12-22T05:03:18.727Z,23.97
2022-12-22T05:07:21.815Z,21.60
2022-12-22T05:11:25.013Z,23.30
2022-12-22T05:15:31.451Z,19.20
2022-12-22T05:19:34.432Z,20.83
2022-12-22T05:23:37.695Z,19.43
2022-12-22T05:27:40.640Z,23.47
2022-12-22T05:31:47.330Z,19.73
2022-12-22T05:35:50.619Z,23.60
2022-12-22T05:39:53.506Z,21.63
2022-12-22T05:43:56.391Z,19.53
2022-12-22T05:48:00.893Z,19.77
2022-12-22T05:52:03.929Z,18.80
2022-12-22T05:56:08.116Z,22.47
2022-12-22T06:00:14.944Z,22.47
2022-12-22T06:04:19.512Z,18.40
2022-12-22T06:08:22.892Z,23.17
2022-12-22T06:12:25.975Z,21.83
2022-12-22T06:16:28.989Z,24.20
2022-12-22T06:20:33.543Z,19.53
2022-12-22T06:24:36.654Z,20.80
2022-12-22T06:28:39.617Z,23.17
2022-12-22T06:32:42.628Z,19.23
2022-12-22T06:36:47.357Z,21.83
2022-12-22T06:40:50.247Z,25.67
2022-12-22T06:44:54.970Z,25.13
2022-12-22T06:48:57.849Z,21.20
2022-12-22T06:53:02.267Z,24.90
2022-12-22T06:57:05.549Z,22.43
2022-12-22T07:01:08.722Z,21.63
2022-12-22T07:05:11.675Z,21.70
2022-12-22T07:09:16.119Z,23.43
2022-12-22T07:13:22.008Z,28.47
2022-12-22T07:17:24.951Z,21.37
2022-12-22T07:21:27.899Z,22.43
2022-12-22T07:25:32.205Z,25.20
2022-12-22T07:29:36.246Z,22.40
2022-12-22T07:33:39.849Z,21.93
2022-12-22T07:37:42.817Z,25.33
2022-12-22T07:42:04.588Z,21.03
2022-12-22T07:46:07.620Z,19.73
2022-12-22T07:50:27.838Z,21.93
2022-12-22T07:54:32.315Z,22.27
2022-12-22T07:58:38.617Z,22.20
2022-12-22T08:02:42.194Z,25.47
2022-12-22T08:06:45.597Z,27.07
2022-12-22T08:10:48.556Z,23.80
2022-12-22T08:14:53.021Z,20.77
2022-12-22T08:18:55.981Z,21.20
2022-12-22T08:22:58.968Z,25.83
2022-12-22T08:27:06.584Z,24.57
2022-12-22T08:31:11.544Z,28.13
2022-12-22T08:35:14.844Z,23.70
2022-12-22T08:39:19.637Z,24.77
2022-12-22T08:43:22.928Z,24.63
2022-12-22T08:47:27.273Z,21.00
2022-12-22T08:51:30.412Z,24.33
2022-12-22T08:55:33.792Z,22.40
2022-12-22T08:59:36.767Z,27.40
2022-12-22T09:03:41.065Z,26.20
2022-12-22T09:07:44.069Z,21.17
2022-12-22T09:11:47.062Z,25.73
2022-12-22T09:15:50.045Z,23.77
2022-12-22T09:19:54.755Z,26.50
2022-12-22T09:23:58.513Z,23.47
2022-12-22T09:28:01.709Z,21.60
2022-12-22T09:32:05.423Z,22.50
2022-12-22T09:36:12.095Z,22.77
2022-12-22T09:40:15.215Z,25.10
2022-12-22T09:44:25.401Z,31.47
2022-12-22T09:48:35.350Z,25.60
2022-12-22T09:52:47.119Z,26.03
2022-12-22T09:56:50.149Z,26.03
2022-12-22T10:01:00.220Z,24.87
2022-12-22T10:05:28.307Z,20.73
2022-12-22T10:09:48.744Z,29.33
2022-12-22T10:13:52.941Z,25.33
2022-12-22T10:18:11.172Z,22.50
2022-12-22T10:22:24.017Z,23.50
2022-12-22T10:26:33.012Z,23.60
2022-12-22T10:30:37.896Z,22.27
2022-12-22T10:35:00.407Z,21.63
2022-12-22T10:39:06.423Z,24.53
2022-12-22T10:43:10.820Z,20.53
2022-12-22T10:47:17.920Z,21.47
2022-12-22T10:51:26.414Z,23.43
2022-12-22T10:55:30.870Z,24.17
2022-12-22T10:59:47.564Z,22.20
2022-12-22T11:03:50.802Z,24.30
2022-12-22T11:07:53.890Z,24.30
2022-12-22T11:12:04.197Z,17.53
2022-12-22T11:16:18.616Z,23.60
2022-12-22T11:20:48.648Z,21.37
2022-12-22T11:25:08.167Z,20.90
2022-12-22T11:29:27.536Z,22.13
2022-12-22T11:33:44.479Z,21.70
2022-12-22T11:37:51.537Z,22.40
2022-12-22T11:42:07.597Z,20.50
2022-12-22T11:46:23.709Z,19.57
2022-12-22T11:50:58.141Z,22.97
2022-12-22T11:55:18.399Z,19.67
2022-12-22T11:59:34.548Z,19.07
2022-12-22T12:04:05.323Z,20.17
2022-12-22T12:08:22.790Z,18.13
2022-12-22T12:12:33.279Z,16.00
2022-12-22T12:16:45.002Z,19.53
2022-12-22T12:20:59.339Z,22.33
2022-12-22T12:25:11.366Z,20.43
2022-12-22T12:29:20.014Z,21.00
2022-12-22T12:33:33.949Z,17.60
2022-12-22T12:37:39.514Z,26.47
2022-12-22T12:41:55.522Z,23.03
2022-12-22T12:45:58.718Z,23.43
2022-12-22T12:50:27.187Z,20.70
2022-12-22T12:54:41.047Z,23.13
2022-12-22T12:58:59.120Z,19.13
2022-12-22T13:03:03.633Z,20.20
2022-12-22T13:07:06.692Z,23.97
2022-12-22T13:12:01.661Z,24.83
2022-12-22T13:16:28.139Z,22.70
2022-12-22T13:20:33.753Z,23.03
2022-12-22T13:24:48.988Z,19.47
2022-12-22T13:28:55.832Z,21.00
2022-12-22T13:33:02.330Z,25.07
2022-12-22T13:37:16.082Z,26.05
2022-12-22T13:41:27.232Z,23.77
2022-12-22T13:45:38.096Z,22.40
2022-12-22T13:50:07.889Z,25.37
2022-12-22T13:54:14.793Z,26.87
2022-12-22T13:58:27.802Z,21.20
2022-12-22T14:02:33.739Z,21.70
2022-12-22T14:06:39.989Z,19.87
2022-12-22T14:10:45.665Z,17.30
2022-12-22T14:14:51.395Z,22.13
2022-12-22T14:18:54.792Z,17.50
2022-12-22T14:23:04.350Z,17.57
2022-12-22T14:27:16.925Z,22.80
2022-12-22T14:31:20.989Z,19.70
2022-12-22T14:35:29.105Z,23.52
2022-12-22T14:39:34.728Z,22.07
2022-12-22T14:43:38.001Z,18.60
2022-12-22T14:47:41.177Z,21.05
2022-12-22T14:51:44.125Z,18.45
2022-12-22T14:55:51.966Z,16.77
2022-12-22T15:00:03.773Z,16.23
2022-12-22T15:04:16.255Z,19.58
2022-12-22T15:08:38.809Z,19.73
2022-12-22T15:12:43.918Z,16.98
2022-12-22T15:16:47.599Z,17.35
2022-12-22T15:20:50.555Z,19.60
2022-12-22T15:24:53.566Z,17.35
2022-12-22T15:28:57.856Z,20.13
2022-12-22T15:33:00.931Z,21.10
2022-12-22T15:37:03.865Z,17.08
2022-12-22T15:41:07.583Z,19.88
2022-12-22T15:45:13.207Z,18.55
2022-12-22T15:49:20.601Z,18.67
2022-12-22T15:53:24.479Z,23.98
2022-12-22T15:57:27.818Z,18.40
2022-12-22T16:01:32.218Z,17.98
2022-12-22T16:05:35.710Z,19.98
2022-12-22T16:09:42.353Z,19.38
2022-12-22T16:13:45.934Z,20.95
2022-12-22T16:17:52.128Z,20.07
2022-12-22T16:21:55.469Z,19.33
2022-12-22T16:26:02.117Z,14.43
2022-12-22T16:30:06.523Z,18.80
2022-12-22T16:34:12.263Z,16.87
2022-12-22T16:38:18.881Z,16.25
2022-12-22T16:46:42.744Z,16.73
2022-12-22T16:50:48.885Z,15.30
2022-12-22T16:54:52.974Z,15.88
2022-12-22T16:58:56.132Z,14.90
2022-12-22T17:03:03.624Z,15.82
2022-12-22T17:07:08.240Z,16.43
2022-12-22T17:11:16.952Z,12.63
2022-12-22T17:15:22.352Z,18.77
2022-12-22T17:19:25.397Z,15.82
2022-12-22T17:23:34.664Z,14.60
2022-12-22T17:27:37.798Z,14.63
2022-12-22T17:31:40.747Z,17.43
2022-12-22T17:35:45.029Z,16.10
2022-12-22T17:39:52.886Z,15.30
2022-12-22T17:43:55.858Z,13.00
2022-12-22T17:47:58.792Z,14.33
2022-12-22T17:52:01.719Z,15.57
2022-12-22T17:56:08.633Z,14.10
2022-12-22T18:00:18.705Z,18.70
2022-12-22T18:04:22.117Z,17.57
2022-12-22T18:08:25.127Z,16.27
2022-12-22T18:12:29.906Z,16.23
2022-12-22T18:16:33.102Z,15.95
2022-12-22T18:20:36.123Z,16.57
2022-12-22T18:24:39.050Z,18.80
2022-12-22T18:28:43.424Z,15.17
2022-12-22T18:32:47.055Z,16.27
2022-12-22T18:36:50.047Z,18.83
2022-12-22T18:40:53.317Z,19.60
2022-12-22T18:44:57.616Z,16.57
2022-12-22T18:49:05.641Z,20.37
2022-12-22T18:53:19.581Z,19.27
2022-12-22T18:57:22.736Z,21.03
2022-12-22T19:01:27.882Z,16.57
2022-12-22T19:05:34.245Z,19.52
2022-12-22T19:09:37.295Z,18.30
2022-12-22T19:13:43.922Z,21.35
2022-12-22T19:17:49.151Z,16.58
2022-12-22T19:21:53.672Z,18.40
2022-12-22T19:26:05.700Z,17.60
2022-12-22T19:30:18.464Z,17.30
2022-12-22T19:34:22.984Z,21.73
2022-12-22T19:38:27.122Z,17.80
2022-12-22T19:42:30.133Z,15.75
2022-12-22T19:46:35.306Z,19.50
2022-12-22T19:50:39.730Z,17.63
2022-12-22T19:54:43.294Z,21.50
2022-12-22T19:58:46.527Z,16.30
2022-12-22T20:02:52.591Z,13.88
2022-12-22T20:06:57.225Z,18.30
2022-12-22T20:11:00.973Z,16.27
2022-12-22T20:15:16.579Z,16.25
2022-12-22T20:19:19.484Z,14.68
2022-12-22T20:23:25.283Z,13.15
2022-12-22T20:27:33.923Z,15.45
2022-12-22T20:31:36.975Z,13.65
2022-12-22T20:35:40.931Z,14.45
2022-12-22T20:39:45.838Z,13.13
2022-12-22T20:43:49.651Z,11.57
2022-12-22T20:47:53.959Z,12.15
2022-12-22T20:51:56.895Z,12.30
2022-12-22T20:56:02.051Z,11.80
2022-12-22T21:00:06.685Z,11.43
2022-12-22T21:04:10.003Z,12.52
2022-12-22T21:08:20.302Z,12.48
2022-12-22T21:12:25.115Z,10.45
2022-12-22T21:16:31.196Z,11.65
2022-12-22T21:20:34.224Z,11.90
2022-12-22T21:24:37.244Z,20.70
2022-12-22T21:28:41.807Z,12.95
2022-12-22T21:32:45.004Z,11.57
2022-12-22T21:36:52.945Z,7.13
2022-12-22T21:40:56.005Z,6.82
2022-12-22T21:45:00.553Z,6.50
2022-12-22T21:49:03.560Z,5.88
2022-12-22T21:53:06.853Z,6.05
2022-12-22T21:57:14.921Z,5.18
2022-12-22T22:01:19.297Z,3.08
2022-12-22T22:05:26.384Z,3.20
2022-12-22T22:09:29.319Z,6.55
2022-12-22T22:13:32.380Z,5.28
2022-12-22T22:17:36.878Z,2.13
2022-12-22T22:21:39.842Z,2.95
2022-12-22T22:25:42.902Z,4.78
2022-12-22T22:29:45.965Z,3.85
2022-12-22T22:33:51.395Z,5.20
2022-12-22T22:37:55.153Z,4.68
2022-12-22T22:41:58.104Z,3.97
2022-12-22T22:46:01.114Z,2.33
2022-12-22T22:50:08.768Z,2.63
2022-12-22T22:54:13.115Z,1.88
2022-12-22T22:58:16.021Z,6.35
2022-12-22T23:02:19.087Z,4.07
2022-12-22T23:06:23.586Z,4.25
2022-12-22T23:10:26.587Z,3.92
2022-12-22T23:14:29.906Z,5.07
2022-12-22T23:18:34.644Z,3.40
2022-12-22T23:22:38.909Z,4.30
2022-12-22T23:26:41.829Z,3.58
2022-12-22T23:30:48.428Z,5.65
2022-12-22T23:34:51.327Z,4.45
2022-12-22T23:38:55.684Z,3.22
2022-12-22T23:42:58.575Z,4.32
2022-12-22T23:47:01.548Z,4.75
2022-12-22T23:51:05.441Z,5.05
2022-12-22T23:55:10.862Z,5.05
2022-12-22T23:59:13.822Z,5.25
